createdAt,value
2019-02-28T00:01:32.313Z,10.63
2019-02-28T00:04:02.178Z,11.57
2019-02-28T00:06:32.107Z,9.53
2019-02-28T00:09:01.586Z,11.00
2019-02-28T00:11:32.614Z,8.80
2019-02-28T00:14:02.009Z,9.60
2019-02-28T00:16:31.461Z,10.63
2019-02-28T00:19:00.913Z,12.83
2019-02-28T00:21:30.315Z,10.30
2019-02-28T00:23:59.774Z,11.50
2019-02-28T00:26:29.306Z,8.23
2019-02-28T00:29:00.510Z,9.33
2019-02-28T00:31:29.867Z,10.80
2019-02-28T00:34:04.534Z,11.63
2019-02-28T00:36:30.319Z,11.13
2019-02-28T00:39:00.056Z,11.37
2019-02-28T00:41:30.990Z,10.33
2019-02-28T00:44:00.363Z,12.23
2019-02-28T00:46:29.921Z,10.70
2019-02-28T00:48:59.339Z,11.17
2019-02-28T00:51:29.761Z,11.40
2019-02-28T00:54:00.035Z,9.50
2019-02-28T00:56:29.637Z,8.80
2019-02-28T00:59:00.541Z,10.63
2019-02-28T01:01:30.697Z,10.73
2019-02-28T01:04:00.106Z,10.87
2019-02-28T01:06:29.444Z,12.23
2019-02-28T01:08:58.881Z,10.90
2019-02-28T01:11:29.258Z,13.57
2019-02-28T01:14:01.566Z,11.30
2019-02-28T01:16:29.832Z,10.43
2019-02-28T01:18:59.242Z,9.90
2019-02-28T01:21:28.647Z,11.13
2019-02-28T01:24:00.572Z,12.40
2019-02-28T01:26:30.534Z,10.37
2019-02-28T01:29:02.082Z,12.73
2019-02-28T01:31:31.095Z,10.50
2019-02-28T01:34:00.484Z,9.73
2019-02-28T01:36:29.887Z,11.03
2019-02-28T01:38:59.467Z,11.67
2019-02-28T01:41:28.866Z,10.50
2019-02-28T01:44:01.624Z,8.77
2019-02-28T01:46:29.394Z,10.57
2019-02-28T01:48:59.115Z,11.87
2019-02-28T01:51:28.480Z,12.13
2019-02-28T01:53:57.889Z,10.53
2019-02-28T01:56:27.222Z,10.47
2019-02-28T01:58:56.641Z,10.53
2019-02-28T02:01:28.492Z,11.77
2019-02-28T02:03:57.390Z,13.17
2019-02-28T02:06:26.743Z,9.60
2019-02-28T02:11:47.232Z,12.73
2019-02-28T02:14:16.644Z,10.20
2019-02-28T02:16:46.196Z,11.37
2019-02-28T02:19:18.482Z,9.50
2019-02-28T02:21:46.813Z,13.50
2019-02-28T02:24:16.161Z,10.67
2019-02-28T02:26:45.944Z,10.00
2019-02-28T02:29:15.529Z,9.77
2019-02-28T02:31:45.145Z,11.20
2019-02-28T02:34:14.556Z,11.10
2019-02-28T02:36:43.970Z,10.33
2019-02-28T02:39:17.503Z,11.47
2019-02-28T02:41:44.387Z,12.37
2019-02-28T02:44:13.730Z,12.07
2019-02-28T02:46:43.307Z,12.33
2019-02-28T02:49:18.489Z,12.37
2019-02-28T02:51:49.020Z,13.30
2019-02-28T02:54:19.884Z,12.50
2019-02-28T02:56:46.346Z,12.43
2019-02-28T02:59:15.780Z,9.90
2019-02-28T03:01:45.142Z,11.97
2019-02-28T03:04:21.443Z,9.77
2019-02-28T03:06:46.733Z,10.40
2019-02-28T03:09:16.564Z,10.60
2019-02-28T03:11:46.200Z,12.20
2019-02-28T03:14:17.319Z,11.90
2019-02-28T03:16:46.697Z,12.33
2019-02-28T03:19:16.078Z,10.13
2019-02-28T03:21:51.325Z,12.30
2019-02-28T03:24:17.929Z,11.47
2019-02-28T03:26:47.354Z,12.03
2019-02-28T03:29:16.676Z,11.43
2019-02-28T03:31:54.501Z,12.13
2019-02-28T03:34:17.263Z,12.10
2019-02-28T03:36:55.028Z,13.83
2019-02-28T03:39:24.101Z,9.17
2019-02-28T03:41:49.205Z,12.13
2019-02-28T03:44:21.733Z,11.23
2019-02-28T03:46:51.021Z,11.43
2019-02-28T03:49:20.356Z,11.43
2019-02-28T03:51:49.776Z,11.23
2019-02-28T03:54:19.129Z,11.00
2019-02-28T03:56:52.790Z,12.53
2019-02-28T03:59:20.172Z,11.37
2019-02-28T04:04:50.179Z,10.53
2019-02-28T04:07:18.708Z,12.47
2019-02-28T04:09:48.104Z,11.07
2019-02-28T04:12:17.597Z,11.13
2019-02-28T04:14:46.939Z,11.50
2019-02-28T04:17:16.499Z,13.40
2019-02-28T04:19:45.894Z,12.03
2019-02-28T04:22:19.500Z,13.67
2019-02-28T04:24:47.479Z,9.73
2019-02-28T04:27:17.157Z,12.63
2019-02-28T04:29:47.415Z,12.07
2019-02-28T04:32:26.640Z,11.10
2019-02-28T04:34:51.688Z,12.90
2019-02-28T04:37:21.042Z,11.30
2019-02-28T04:39:53.362Z,12.37
2019-02-28T04:42:21.646Z,11.60
2019-02-28T04:44:51.971Z,10.20
2019-02-28T04:47:21.943Z,9.80
2019-02-28T04:49:53.455Z,11.13
2019-02-28T04:52:22.957Z,10.13
2019-02-28T04:54:52.611Z,12.37
2019-02-28T04:57:22.216Z,11.17
2019-02-28T04:59:51.757Z,9.83
2019-02-28T05:02:21.234Z,10.90
2019-02-28T05:04:50.857Z,9.27
2019-02-28T05:07:20.377Z,11.20
2019-02-28T05:09:49.781Z,12.33
2019-02-28T05:12:19.193Z,15.10
2019-02-28T05:14:48.590Z,10.27
2019-02-28T05:17:19.301Z,11.10
2019-02-28T05:19:49.346Z,11.37
2019-02-28T05:22:18.811Z,14.50
2019-02-28T05:24:48.227Z,10.40
2019-02-28T05:27:17.587Z,10.70
2019-02-28T05:29:47.135Z,11.93
2019-02-28T05:32:17.444Z,13.77
2019-02-28T05:34:47.384Z,11.83
2019-02-28T05:37:17.953Z,13.17
2019-02-28T05:39:47.420Z,11.07
2019-02-28T05:42:16.847Z,14.03
2019-02-28T05:44:46.504Z,11.33
2019-02-28T05:47:15.874Z,16.67
2019-02-28T05:49:45.275Z,13.40
2019-02-28T05:52:14.631Z,13.20
2019-02-28T05:54:44.206Z,13.43
2019-02-28T05:57:13.645Z,10.70
2019-02-28T05:59:43.025Z,13.20
2019-02-28T06:02:12.388Z,12.10
2019-02-28T06:04:41.783Z,11.83
2019-02-28T06:07:11.194Z,13.73
2019-02-28T06:09:40.797Z,10.50
2019-02-28T06:12:10.300Z,12.73
2019-02-28T06:14:39.718Z,12.50
2019-02-28T06:17:09.104Z,12.67
2019-02-28T06:19:40.242Z,13.73
2019-02-28T06:22:09.708Z,12.23
2019-02-28T06:24:39.154Z,11.90
2019-02-28T06:27:08.543Z,14.17
2019-02-28T06:29:37.934Z,11.80
2019-02-28T06:32:07.322Z,12.63
2019-02-28T06:34:39.489Z,10.40
2019-02-28T06:37:08.100Z,12.53
2019-02-28T06:39:37.628Z,14.23
2019-02-28T06:42:07.180Z,13.43
2019-02-28T06:44:36.670Z,14.20
2019-02-28T06:47:06.050Z,11.90
2019-02-28T06:49:40.958Z,14.67
2019-02-28T06:52:06.502Z,11.67
2019-02-28T06:54:35.972Z,14.27
2019-02-28T06:57:05.655Z,12.50
2019-02-28T06:59:36.269Z,10.10
2019-02-28T07:02:06.198Z,12.77
2019-02-28T07:04:35.576Z,12.50
2019-02-28T07:07:07.353Z,13.27
2019-02-28T07:09:36.443Z,12.33
2019-02-28T07:12:06.602Z,14.13
2019-02-28T07:14:35.972Z,12.37
2019-02-28T07:17:07.801Z,11.60
2019-02-28T07:19:36.392Z,14.33
2019-02-28T07:22:06.133Z,13.83
2019-02-28T07:24:37.536Z,12.43
2019-02-28T07:27:06.511Z,12.73
2019-02-28T07:29:35.885Z,11.90
2019-02-28T07:32:05.287Z,12.47
2019-02-28T07:34:37.357Z,12.20
2019-02-28T07:37:07.087Z,13.50
2019-02-28T07:39:40.128Z,13.47
2019-02-28T07:42:09.198Z,14.27
2019-02-28T07:44:38.563Z,13.03
2019-02-28T07:47:10.231Z,11.37
2019-02-28T07:49:39.677Z,16.13
2019-02-28T07:52:09.312Z,11.87
2019-02-28T07:54:38.737Z,12.50
2019-02-28T07:57:08.168Z,13.27
2019-02-28T07:59:42.343Z,13.53
2019-02-28T08:02:08.874Z,16.93
2019-02-28T08:04:38.268Z,18.20
2019-02-28T08:07:07.822Z,17.40
2019-02-28T08:09:40.598Z,18.87
2019-02-28T08:12:08.414Z,21.13
2019-02-28T08:14:37.803Z,21.97
2019-02-28T08:17:09.051Z,23.47
2019-02-28T08:19:38.583Z,23.50
2019-02-28T08:22:08.094Z,22.60
2019-02-28T08:24:37.664Z,20.67
2019-02-28T08:27:07.064Z,22.87
2019-02-28T08:29:36.799Z,22.90
2019-02-28T08:34:55.557Z,18.80
2019-02-28T08:37:25.456Z,24.57
2019-02-28T08:39:54.868Z,24.63
2019-02-28T08:42:24.212Z,25.23
2019-02-28T08:44:58.088Z,28.33
2019-02-28T08:47:24.952Z,25.40
2019-02-28T08:49:54.411Z,17.90
2019-02-28T08:52:23.934Z,22.37
2019-02-28T08:54:53.328Z,25.43
2019-02-28T08:57:25.622Z,26.40
2019-02-28T08:59:56.273Z,27.73
2019-02-28T09:02:25.146Z,24.93
2019-02-28T09:04:54.564Z,23.07
2019-02-28T09:07:23.982Z,24.70
2019-02-28T09:09:53.401Z,22.47
2019-02-28T09:12:22.881Z,22.73
2019-02-28T09:14:55.427Z,23.27
2019-02-28T09:17:23.277Z,25.80
2019-02-28T09:19:52.919Z,24.97
2019-02-28T09:22:26.987Z,25.13
2019-02-28T09:24:53.605Z,24.23
2019-02-28T09:27:24.161Z,25.07
2019-02-28T09:29:54.692Z,23.13
2019-02-28T09:32:24.629Z,27.80
2019-02-28T09:34:54.084Z,21.13
2019-02-28T09:37:23.472Z,18.93
2019-02-28T09:39:54.294Z,21.63
2019-02-28T09:42:26.470Z,23.27
2019-02-28T09:44:55.926Z,28.27
2019-02-28T09:47:26.656Z,20.43
2019-02-28T09:49:56.311Z,26.43
2019-02-28T09:52:26.002Z,20.57
2019-02-28T09:54:56.274Z,22.00
2019-02-28T09:57:26.470Z,16.70
2019-02-28T09:59:55.916Z,17.40
2019-02-28T10:02:25.360Z,25.03
2019-02-28T10:04:54.872Z,25.13
2019-02-28T10:07:26.510Z,16.83
2019-02-28T10:09:55.496Z,27.13
2019-02-28T10:12:24.905Z,24.30
2019-02-28T10:14:54.257Z,15.50
2019-02-28T10:17:25.907Z,29.73
2019-02-28T10:19:55.703Z,17.47
2019-02-28T10:22:25.203Z,19.53
2019-02-28T10:24:54.863Z,32.70
2019-02-28T10:27:26.735Z,34.13
2019-02-28T10:29:55.511Z,24.60
2019-02-28T10:32:25.913Z,22.60
2019-02-28T10:34:58.322Z,28.73
2019-02-28T10:37:26.487Z,17.23
2019-02-28T10:39:55.904Z,20.70
2019-02-28T10:42:25.352Z,27.97
2019-02-28T10:44:54.708Z,18.07
2019-02-28T10:47:28.160Z,26.80
2019-02-28T10:49:55.383Z,27.57
2019-02-28T10:52:27.320Z,28.43
2019-02-28T10:54:57.514Z,24.27
2019-02-28T10:57:27.072Z,17.60
2019-02-28T10:59:58.236Z,23.83
2019-02-28T11:02:27.563Z,28.90
2019-02-28T11:04:57.180Z,28.53
2019-02-28T11:07:26.691Z,30.57
2019-02-28T11:09:58.794Z,28.87
2019-02-28T11:12:27.365Z,22.90
2019-02-28T11:14:56.734Z,31.93
2019-02-28T11:17:26.155Z,29.27
2019-02-28T11:19:55.717Z,25.37
2019-02-28T11:22:25.079Z,30.60
2019-02-28T11:24:57.301Z,30.97
2019-02-28T11:27:25.964Z,26.40
2019-02-28T11:29:55.537Z,32.20
2019-02-28T11:32:26.439Z,27.13
2019-02-28T11:34:56.393Z,29.13
2019-02-28T11:37:25.873Z,25.23
2019-02-28T11:39:56.381Z,30.63
2019-02-28T11:42:28.014Z,25.43
2019-02-28T11:44:58.456Z,21.67
2019-02-28T11:47:27.926Z,26.90
2019-02-28T11:50:00.296Z,29.40
2019-02-28T11:52:28.434Z,26.33
2019-02-28T11:54:58.071Z,24.03
2019-02-28T11:57:27.856Z,29.77
2019-02-28T12:00:00.092Z,22.57
2019-02-28T12:02:28.438Z,28.27
2019-02-28T12:04:57.842Z,24.10
2019-02-28T12:07:27.324Z,29.13
2019-02-28T12:09:57.105Z,28.27
2019-02-28T12:12:27.575Z,25.53
2019-02-28T12:14:57.046Z,25.93
2019-02-28T12:17:28.597Z,30.77
2019-02-28T12:19:57.699Z,26.43
2019-02-28T12:22:27.454Z,16.33
2019-02-28T12:24:57.048Z,29.13
2019-02-28T12:27:27.431Z,28.10
2019-02-28T12:29:57.538Z,28.70
2019-02-28T12:32:26.987Z,31.10
2019-02-28T12:34:56.346Z,26.67
2019-02-28T12:37:25.861Z,22.00
2019-02-28T12:39:55.350Z,28.47
2019-02-28T12:42:25.052Z,28.63
2019-02-28T12:44:54.397Z,24.57
2019-02-28T12:47:24.378Z,25.70
2019-02-28T12:49:57.270Z,25.27
2019-02-28T12:52:26.593Z,26.33
2019-02-28T12:54:56.886Z,27.17
2019-02-28T12:57:26.504Z,26.20
2019-02-28T12:59:55.981Z,29.97
2019-02-28T13:02:26.138Z,27.90
2019-02-28T13:04:55.536Z,26.43
2019-02-28T13:07:25.115Z,27.77
2019-02-28T13:09:54.544Z,25.73
2019-02-28T13:12:24.155Z,21.77
2019-02-28T13:14:54.753Z,24.63
2019-02-28T13:17:24.407Z,26.40
2019-02-28T13:19:56.547Z,23.40
2019-02-28T13:22:25.379Z,25.10
2019-02-28T13:24:54.880Z,27.63
2019-02-28T13:27:24.640Z,26.17
2019-02-28T13:29:54.511Z,30.07
2019-02-28T13:32:24.280Z,25.57
2019-02-28T13:34:53.719Z,25.23
2019-02-28T13:37:23.498Z,27.27
2019-02-28T13:39:52.922Z,26.33
2019-02-28T13:42:22.410Z,26.80
2019-02-28T13:44:51.926Z,22.70
2019-02-28T13:47:21.443Z,26.03
2019-02-28T13:49:50.892Z,27.10
2019-02-28T13:52:20.987Z,28.40
2019-02-28T13:54:52.067Z,25.20
2019-02-28T13:57:21.470Z,24.30
2019-02-28T13:59:53.746Z,25.93
2019-02-28T14:02:26.232Z,25.03
2019-02-28T14:04:58.715Z,26.60
2019-02-28T14:07:30.123Z,26.80
2019-02-28T14:09:58.912Z,29.13
2019-02-28T14:12:28.898Z,24.67
2019-02-28T14:14:58.696Z,21.90
2019-02-28T14:17:28.273Z,26.27
2019-02-28T14:19:57.851Z,25.33
2019-02-28T14:22:27.270Z,25.67
2019-02-28T14:24:58.072Z,26.00
2019-02-28T14:27:27.586Z,28.33
2019-02-28T14:29:57.007Z,24.17
2019-02-28T14:32:26.515Z,32.47
2019-02-28T14:34:57.242Z,25.73
2019-02-28T14:37:28.365Z,25.40
2019-02-28T14:39:57.757Z,18.00
2019-02-28T14:42:27.236Z,28.13
2019-02-28T14:44:58.128Z,26.07
2019-02-28T14:47:28.518Z,21.10
2019-02-28T14:49:59.675Z,26.77
2019-02-28T14:52:30.229Z,21.53
2019-02-28T14:55:02.164Z,23.73
2019-02-28T14:57:32.186Z,25.63
2019-02-28T15:00:06.477Z,25.10
2019-02-28T15:02:37.234Z,22.43
2019-02-28T15:05:10.275Z,23.00
2019-02-28T15:07:42.037Z,21.30
2019-02-28T15:10:22.679Z,25.20
2019-02-28T15:12:55.333Z,23.50
2019-02-28T15:15:24.596Z,19.93
2019-02-28T15:17:55.984Z,21.07
2019-02-28T15:20:31.713Z,22.53
2019-02-28T15:23:00.216Z,22.47
2019-02-28T15:25:30.766Z,22.63
2019-02-28T15:28:01.357Z,23.73
2019-02-28T15:30:38.673Z,21.63
2019-02-28T15:33:09.950Z,26.00
2019-02-28T15:35:39.508Z,27.40
2019-02-28T15:38:10.504Z,28.70
2019-02-28T15:40:42.616Z,28.03
2019-02-28T15:43:17.167Z,28.70
2019-02-28T15:45:43.406Z,24.37
2019-02-28T15:48:12.770Z,27.47
2019-02-28T15:50:42.579Z,23.73
2019-02-28T15:53:15.172Z,25.63
2019-02-28T15:55:43.146Z,23.77
2019-02-28T15:58:12.766Z,28.30
2019-02-28T16:00:42.273Z,23.57
2019-02-28T16:03:13.514Z,28.17
2019-02-28T16:05:44.236Z,30.30
2019-02-28T16:08:14.906Z,26.40
2019-02-28T16:10:52.879Z,33.23
2019-02-28T16:13:16.811Z,28.60
2019-02-28T16:15:49.022Z,25.33
2019-02-28T16:18:17.576Z,29.13
2019-02-28T16:20:47.079Z,28.73
2019-02-28T16:23:16.726Z,29.50
2019-02-28T16:25:48.170Z,29.83
2019-02-28T16:28:18.497Z,28.87
2019-02-28T16:30:48.141Z,26.33
2019-02-28T16:33:20.989Z,27.10
2019-02-28T16:35:50.337Z,27.10
2019-02-28T16:38:20.835Z,17.77
2019-02-28T16:40:50.475Z,26.50
2019-02-28T16:43:20.951Z,26.47
2019-02-28T16:45:57.134Z,25.17
2019-02-28T16:48:33.421Z,26.33
2019-02-28T16:51:02.191Z,25.70
2019-02-28T16:53:31.857Z,23.17
2019-02-28T16:56:02.584Z,26.90
2019-02-28T16:58:33.310Z,27.23
2019-02-28T17:01:02.918Z,30.43
2019-02-28T17:03:32.535Z,26.53
2019-02-28T17:06:02.407Z,26.40
2019-02-28T17:08:33.815Z,29.90
2019-02-28T17:11:03.651Z,27.37
2019-02-28T17:13:38.752Z,26.30
2019-02-28T17:16:13.206Z,28.10
2019-02-28T17:18:44.004Z,24.27
2019-02-28T17:21:17.927Z,29.80
2019-02-28T17:23:45.322Z,23.90
2019-02-28T17:27:06.140Z,27.23
2019-02-28T17:30:17.498Z,25.43
2019-02-28T17:36:15.814Z,24.60
2019-02-28T17:38:45.606Z,26.93
2019-02-28T17:41:15.266Z,26.03
2019-02-28T17:44:04.106Z,27.20
2019-02-28T17:46:34.043Z,28.10
2019-02-28T17:49:29.531Z,26.47
2019-02-28T17:52:02.291Z,26.93
2019-02-28T17:54:37.943Z,23.33
2019-02-28T17:57:11.247Z,21.90
2019-02-28T17:59:47.270Z,25.37
2019-02-28T18:02:49.475Z,29.03
2019-02-28T18:05:50.183Z,25.63
2019-02-28T18:08:36.720Z,27.37
2019-02-28T18:11:13.033Z,25.63
2019-02-28T18:14:03.747Z,23.20
2019-02-28T18:16:58.022Z,25.73
2019-02-28T18:19:40.719Z,22.90
2019-02-28T18:22:29.863Z,26.20
2019-02-28T18:25:25.263Z,27.93
2019-02-28T18:28:15.010Z,26.80
2019-02-28T18:31:08.930Z,27.40
2019-02-28T18:33:47.417Z,26.10
2019-02-28T18:36:19.556Z,26.07
2019-02-28T18:38:49.734Z,25.90
2019-02-28T18:41:19.659Z,26.27
2019-02-28T18:43:49.197Z,24.87
2019-02-28T18:46:18.623Z,25.90
2019-02-28T18:48:51.200Z,26.70
2019-02-28T18:51:19.481Z,30.00
2019-02-28T18:53:49.004Z,26.67
2019-02-28T18:56:18.501Z,26.90
2019-02-28T18:58:48.055Z,25.57
2019-02-28T19:01:17.657Z,23.20
2019-02-28T19:03:47.360Z,25.73
2019-02-28T19:06:16.916Z,27.97
2019-02-28T19:08:46.439Z,27.07
2019-02-28T19:11:16.199Z,25.70
2019-02-28T19:13:46.216Z,23.50
2019-02-28T19:16:15.608Z,28.43
2019-02-28T19:18:48.391Z,26.77
2019-02-28T19:21:18.996Z,27.50
2019-02-28T19:23:48.502Z,29.20
2019-02-28T19:26:18.162Z,26.70
2019-02-28T19:28:47.991Z,27.20
2019-02-28T19:31:19.419Z,107.73
2019-02-28T19:33:48.889Z,140.70
2019-02-28T19:36:18.455Z,33.83
2019-02-28T19:38:47.920Z,32.27
2019-02-28T19:41:17.436Z,26.90
2019-02-28T19:43:46.937Z,26.60
2019-02-28T19:46:16.567Z,33.30
2019-02-28T19:48:47.151Z,21.80
2019-02-28T19:51:16.859Z,28.53
2019-02-28T19:53:46.267Z,30.77
2019-02-28T19:56:15.680Z,21.60
2019-02-28T19:58:45.086Z,14.40
2019-02-28T20:01:19.020Z,30.03
2019-02-28T20:03:47.491Z,29.37
2019-02-28T20:06:16.852Z,26.53
2019-02-28T20:08:46.672Z,25.00
2019-02-28T20:11:16.236Z,21.47
2019-02-28T20:13:46.262Z,29.73
2019-02-28T20:16:16.390Z,28.60
2019-02-28T20:18:46.020Z,26.10
2019-02-28T20:21:15.526Z,27.00
2019-02-28T20:23:44.974Z,26.57
2019-02-28T20:26:14.685Z,25.17
2019-02-28T20:28:44.260Z,21.97
2019-02-28T20:31:14.014Z,17.33
2019-02-28T20:33:43.660Z,22.93
2019-02-28T20:36:13.207Z,22.70
2019-02-28T20:38:42.787Z,19.97
2019-02-28T20:41:13.303Z,26.40
2019-02-28T20:43:42.896Z,17.30
2019-02-28T20:46:12.262Z,25.73
2019-02-28T20:48:42.633Z,25.10
2019-02-28T20:51:14.419Z,29.50
2019-02-28T20:53:44.025Z,24.03
2019-02-28T20:56:15.018Z,28.27
2019-02-28T20:58:44.545Z,22.17
2019-02-28T21:01:14.306Z,17.10
2019-02-28T21:03:43.894Z,22.20
2019-02-28T21:06:15.612Z,23.67
2019-02-28T21:08:45.121Z,22.97
2019-02-28T21:11:14.620Z,26.27
2019-02-28T21:13:44.112Z,21.33
2019-02-28T21:16:13.731Z,21.53
2019-02-28T21:18:49.397Z,25.93
2019-02-28T21:21:18.938Z,24.27
2019-02-28T21:23:48.650Z,24.73
2019-02-28T21:26:20.034Z,17.53
2019-02-28T21:28:49.938Z,24.90
2019-02-28T21:31:19.546Z,22.80
2019-02-28T21:33:49.333Z,21.73
2019-02-28T21:36:19.273Z,22.03
2019-02-28T21:38:48.747Z,19.53
2019-02-28T21:41:20.518Z,26.90
2019-02-28T21:43:54.075Z,26.10
2019-02-28T21:46:26.406Z,24.83
2019-02-28T21:48:56.229Z,24.93
2019-02-28T21:51:27.907Z,24.37
2019-02-28T21:54:13.865Z,21.30
2019-02-28T21:56:48.412Z,24.20
2019-02-28T21:59:21.420Z,21.83
2019-02-28T22:01:51.683Z,24.73
2019-02-28T22:04:27.887Z,18.57
2019-02-28T22:07:01.860Z,20.47
2019-02-28T22:09:52.855Z,26.63
2019-02-28T22:12:27.299Z,21.10
2019-02-28T22:15:02.774Z,21.77
2019-02-28T22:17:34.445Z,20.17
2019-02-28T22:20:04.557Z,18.07
2019-02-28T22:22:34.736Z,16.93
2019-02-28T22:25:06.003Z,17.60
2019-02-28T22:27:35.436Z,18.10
2019-02-28T22:30:27.360Z,15.93
2019-02-28T22:32:58.536Z,17.03
2019-02-28T22:35:29.703Z,14.23
2019-02-28T22:37:59.192Z,17.73
2019-02-28T22:40:29.628Z,14.47
2019-02-28T22:42:59.082Z,14.23
2019-02-28T22:45:28.857Z,15.00
2019-02-28T22:47:58.644Z,14.90
2019-02-28T22:50:28.515Z,13.57
2019-02-28T22:52:58.072Z,15.60
2019-02-28T22:55:27.883Z,14.80
2019-02-28T22:57:57.279Z,15.30
2019-02-28T23:00:46.688Z,13.93
2019-02-28T23:03:17.738Z,5.50
2019-02-28T23:05:47.226Z,12.53
2019-02-28T23:08:16.936Z,14.07
2019-02-28T23:10:46.366Z,9.93
2019-02-28T23:13:15.872Z,11.80
2019-02-28T23:15:45.372Z,13.67
2019-02-28T23:18:14.783Z,16.00
2019-02-28T23:20:44.126Z,12.80
2019-02-28T23:23:13.834Z,15.57
2019-02-28T23:25:43.348Z,12.40
2019-02-28T23:28:25.024Z,13.13
2019-02-28T23:31:06.489Z,14.77
2019-02-28T23:33:35.940Z,11.77
2019-02-28T23:36:05.462Z,17.33
2019-02-28T23:38:35.148Z,14.40
2019-02-28T23:41:05.260Z,15.63
2019-02-28T23:43:34.827Z,13.17
2019-02-28T23:46:04.403Z,13.30
2019-02-28T23:48:33.808Z,16.13
2019-02-28T23:51:03.515Z,15.60
2019-02-28T23:53:33.074Z,12.53
2019-02-28T23:56:02.801Z,16.80
2019-02-28T23:58:32.223Z,14.87
